Decoded Metar for KFPR (FORT PIERCE in FL, USA) (IATA:FPR) | Meteo·Mobile Aviation Weather
aviador You're here:

KFPR Decoded Metar

FORT PIERCE in FL, USA
Report Time2018-11-19 01:53:00
UTC Time2018-11-19 02:37:49
Flight Rules vfr VFR
WindCalm
Visibility9999 m
Phenomena:N/A
Clouds:Broken 095 Hf
Expected CloudBase > 1,600 ft AGL from Temp-Dew spread
Ceiling9,500 ft
Temp23°C (ISA +8)
Dew Point19°C (78% RH)
QNH1019 hPa
Density Alt1,073 ft
Elevation43 ft
Report Wrong Elevation
Raw Report
METAR KFPR 190153Z AUTO 00000KT 10SM BKN095 23/19 A3010 RMK AO2 SLP191
T02280189=

Extra information for KFPR:More info

Metar Taf Metar & Taf Last 4 Metars F.Rules Stats Wind Profile Meteogram Temp Stats Airport Information Weather charts Add Link Nearby VenuesMetar ALERT Operation Metar Decoded Social comments

AIRNAV info for KFPR